createdAt,value
2017-07-27T00:00:48.702Z,1.90
2017-07-27T00:03:16.941Z,1.63
2017-07-27T00:05:45.154Z,1.30
2017-07-27T00:08:13.378Z,2.20
2017-07-27T00:10:48.677Z,2.47
2017-07-27T00:13:16.891Z,2.40
2017-07-27T00:15:45.444Z,2.00
2017-07-27T00:18:13.692Z,1.70
2017-07-27T00:20:41.924Z,1.30
2017-07-27T00:23:10.159Z,1.60
2017-07-27T00:25:48.216Z,1.40
2017-07-27T00:28:17.258Z,1.60
2017-07-27T00:30:45.509Z,1.93
2017-07-27T00:33:14.533Z,1.57
2017-07-27T00:35:46.498Z,1.70
2017-07-27T00:41:15.622Z,1.67
2017-07-27T00:43:43.923Z,1.50
2017-07-27T00:46:12.185Z,1.80
2017-07-27T00:48:41.240Z,1.50
2017-07-27T00:54:09.304Z,1.30
2017-07-27T00:56:38.282Z,2.20
2017-07-27T00:59:07.289Z,1.30
2017-07-27T01:01:35.581Z,1.20
2017-07-27T01:04:03.800Z,1.30
2017-07-27T01:06:32.357Z,1.70
2017-07-27T01:09:00.617Z,1.80
2017-07-27T01:11:28.991Z,1.27
2017-07-27T01:13:57.988Z,1.50
2017-07-27T01:16:26.264Z,1.53
2017-07-27T01:18:54.473Z,1.63
2017-07-27T01:21:49.087Z,2.37
2017-07-27T01:24:17.319Z,2.50
2017-07-27T01:26:45.556Z,2.47
2017-07-27T01:29:14.592Z,2.23
2017-07-27T01:31:42.821Z,3.30
2017-07-27T01:34:11.829Z,1.93
2017-07-27T01:36:40.081Z,3.10
2017-07-27T01:39:08.295Z,3.10
2017-07-27T01:41:49.738Z,3.43
2017-07-27T01:44:17.954Z,2.87
2017-07-27T01:46:46.164Z,3.13
2017-07-27T01:52:15.867Z,3.80
2017-07-27T01:54:44.093Z,3.53
2017-07-27T01:57:12.306Z,2.50
2017-07-27T01:59:47.941Z,3.70
2017-07-27T02:05:16.697Z,2.70
2017-07-27T02:07:44.900Z,3.43
2017-07-27T02:10:13.114Z,2.60
2017-07-27T02:12:41.385Z,4.57
2017-07-27T02:18:09.676Z,3.10
2017-07-27T02:20:37.902Z,3.00
2017-07-27T02:23:06.127Z,3.00
2017-07-27T02:25:48.068Z,4.33
2017-07-27T02:28:16.275Z,4.70
2017-07-27T02:30:48.239Z,2.77
2017-07-27T02:36:18.517Z,4.97
2017-07-27T02:38:46.738Z,5.30
2017-07-27T02:41:14.960Z,7.67
2017-07-27T02:43:43.210Z,7.43
2017-07-27T02:46:11.451Z,5.00
2017-07-27T02:48:39.689Z,7.90
2017-07-27T02:51:07.954Z,6.17
2017-07-27T02:53:36.169Z,6.40
2017-07-27T02:56:04.381Z,5.83
2017-07-27T02:58:47.775Z,7.03
2017-07-27T03:01:16.004Z,5.33
2017-07-27T03:03:44.233Z,5.10
2017-07-27T03:06:12.464Z,6.10
2017-07-27T03:08:40.696Z,5.00
2017-07-27T03:14:09.241Z,7.53
2017-07-27T03:16:37.460Z,8.33
2017-07-27T03:19:05.677Z,9.80
2017-07-27T03:21:33.941Z,7.73
2017-07-27T03:24:02.166Z,7.77
2017-07-27T03:26:49.716Z,5.93
2017-07-27T03:29:17.933Z,6.30
2017-07-27T03:31:46.148Z,6.57
2017-07-27T03:34:14.406Z,4.27
2017-07-27T03:36:42.630Z,2.57
2017-07-27T03:39:11.622Z,5.57
2017-07-27T03:41:40.637Z,5.27
2017-07-27T03:44:08.841Z,4.90
2017-07-27T03:46:37.048Z,3.17
2017-07-27T03:49:05.311Z,6.00
2017-07-27T03:51:33.547Z,5.07
2017-07-27T03:54:01.780Z,5.70
2017-07-27T03:56:30.035Z,4.00
2017-07-27T03:58:58.251Z,5.17
2017-07-27T04:01:26.479Z,7.30
2017-07-27T04:03:54.724Z,6.53
2017-07-27T04:06:22.952Z,7.40
2017-07-27T04:08:51.178Z,7.47
2017-07-27T04:11:19.439Z,7.50
2017-07-27T04:13:47.661Z,5.13
2017-07-27T04:16:15.918Z,9.60
2017-07-27T04:18:44.161Z,8.17
2017-07-27T04:24:14.114Z,7.67
2017-07-27T04:26:42.334Z,7.70
2017-07-27T04:29:10.560Z,9.17
2017-07-27T04:31:38.826Z,8.07
2017-07-27T04:34:07.049Z,8.07
2017-07-27T04:36:35.265Z,7.20
2017-07-27T04:39:03.516Z,6.10
2017-07-27T04:41:32.517Z,6.90
2017-07-27T04:44:00.744Z,6.30
2017-07-27T04:46:29.016Z,3.77
2017-07-27T04:48:57.231Z,5.80
2017-07-27T04:51:25.452Z,6.00
2017-07-27T04:53:53.724Z,5.93
2017-07-27T04:56:21.947Z,7.10
2017-07-27T04:58:50.934Z,6.47
2017-07-27T05:01:19.187Z,6.77
2017-07-27T05:03:48.517Z,4.43
2017-07-27T05:06:16.730Z,5.90
2017-07-27T05:08:44.988Z,5.37
2017-07-27T05:11:13.967Z,6.40
2017-07-27T05:13:42.946Z,5.40
2017-07-27T05:16:11.224Z,5.20
2017-07-27T05:18:49.719Z,5.53
2017-07-27T05:21:17.969Z,5.43
2017-07-27T05:23:46.178Z,5.50
2017-07-27T05:26:14.402Z,6.40
2017-07-27T05:28:42.662Z,5.73
2017-07-27T05:34:10.924Z,5.57
2017-07-27T05:36:39.124Z,4.93
2017-07-27T05:39:08.111Z,3.83
2017-07-27T05:41:37.153Z,5.83
2017-07-27T05:44:05.375Z,5.70
2017-07-27T05:46:47.762Z,4.50
2017-07-27T05:49:15.978Z,6.60
2017-07-27T05:51:44.194Z,5.40
2017-07-27T05:54:12.463Z,5.00
2017-07-27T05:56:40.673Z,5.43
2017-07-27T06:02:09.655Z,4.60
2017-07-27T06:04:37.925Z,4.57
2017-07-27T06:07:06.140Z,4.67
2017-07-27T06:09:35.158Z,4.20
2017-07-27T06:12:03.386Z,5.60
2017-07-27T06:14:31.621Z,5.30
2017-07-27T06:16:59.877Z,4.13
2017-07-27T06:19:29.070Z,5.67
2017-07-27T06:21:57.294Z,6.10
2017-07-27T06:24:25.546Z,5.30
2017-07-27T06:26:53.789Z,5.57
2017-07-27T06:29:22.781Z,6.77
2017-07-27T06:31:51.825Z,5.40
2017-07-27T06:34:20.047Z,7.60
2017-07-27T06:36:49.036Z,9.33
2017-07-27T06:39:18.061Z,11.40
2017-07-27T06:41:46.278Z,9.33
2017-07-27T06:44:14.503Z,9.80
2017-07-27T06:46:42.771Z,10.10
2017-07-27T06:49:10.994Z,11.13
2017-07-27T06:51:39.224Z,9.27
2017-07-27T06:54:07.493Z,12.43
2017-07-27T06:56:35.718Z,11.47
2017-07-27T06:59:03.937Z,14.20
2017-07-27T07:01:32.955Z,14.00
2017-07-27T07:04:01.181Z,15.97
2017-07-27T07:06:29.399Z,18.63
2017-07-27T07:11:34.969Z,16.80
2017-07-27T07:14:03.239Z,18.37
2017-07-27T07:16:31.482Z,13.00
2017-07-27T07:19:00.461Z,16.80
2017-07-27T07:21:28.743Z,17.23
2017-07-27T07:23:57.753Z,15.27
2017-07-27T07:26:26.736Z,13.30
2017-07-27T07:28:55.802Z,13.30
2017-07-27T07:31:24.042Z,12.57
2017-07-27T07:33:52.257Z,13.33
2017-07-27T07:36:20.534Z,10.70
2017-07-27T07:38:48.756Z,11.90
2017-07-27T07:41:16.987Z,13.63
2017-07-27T07:43:45.257Z,12.70
2017-07-27T07:46:13.471Z,11.73
2017-07-27T07:48:41.704Z,11.40
2017-07-27T07:51:09.970Z,11.80
2017-07-27T07:53:38.193Z,13.80
2017-07-27T07:56:07.179Z,13.50
2017-07-27T07:58:36.230Z,13.77
2017-07-27T08:01:04.452Z,10.30
2017-07-27T08:06:34.226Z,13.93
2017-07-27T08:09:20.244Z,12.20
2017-07-27T08:11:48.511Z,11.53
2017-07-27T08:14:16.740Z,8.57
2017-07-27T08:16:51.047Z,10.17
2017-07-27T08:19:47.498Z,11.20
2017-07-27T08:22:16.016Z,11.20
2017-07-27T08:24:44.239Z,10.37
2017-07-27T08:27:12.481Z,10.47
2017-07-27T08:29:40.752Z,11.43
2017-07-27T08:32:08.975Z,9.43
2017-07-27T08:34:49.779Z,8.10
2017-07-27T08:37:18.007Z,9.57
2017-07-27T08:39:46.238Z,8.63
2017-07-27T08:42:14.491Z,9.70
2017-07-27T08:44:49.012Z,8.23
2017-07-27T08:47:17.265Z,8.93
2017-07-27T08:49:45.472Z,9.90
2017-07-27T08:52:13.682Z,9.60
2017-07-27T08:54:42.920Z,11.30
2017-07-27T08:57:11.129Z,9.00
2017-07-27T08:59:39.351Z,8.57
2017-07-27T09:02:07.612Z,10.37
2017-07-27T09:04:36.598Z,10.50
2017-07-27T09:07:05.601Z,10.80
2017-07-27T09:09:34.631Z,9.20
2017-07-27T09:12:02.867Z,10.60
2017-07-27T09:14:48.903Z,9.70
2017-07-27T09:17:17.125Z,10.83
2017-07-27T09:19:45.341Z,9.37
2017-07-27T09:22:13.578Z,9.40
2017-07-27T09:24:48.497Z,9.00
2017-07-27T09:27:16.749Z,10.33
2017-07-27T09:29:50.914Z,8.40
2017-07-27T09:32:19.203Z,8.73
2017-07-27T09:34:47.421Z,8.30
2017-07-27T09:37:15.673Z,8.80
2017-07-27T09:39:43.929Z,9.63
2017-07-27T09:42:12.157Z,7.37
2017-07-27T09:44:40.377Z,8.07
2017-07-27T09:47:08.642Z,8.07
2017-07-27T09:49:36.861Z,8.00
2017-07-27T09:52:05.091Z,8.30
2017-07-27T09:57:54.175Z,9.40
2017-07-27T10:00:22.384Z,9.10
2017-07-27T10:02:50.595Z,8.47
2017-07-27T10:05:19.635Z,9.00
2017-07-27T10:07:47.879Z,9.17
2017-07-27T10:10:16.878Z,8.90
2017-07-27T10:12:45.154Z,9.27
2017-07-27T10:15:13.378Z,9.57
2017-07-27T10:17:41.597Z,10.30
2017-07-27T10:20:10.626Z,9.50
2017-07-27T10:22:49.282Z,9.20
2017-07-27T10:28:18.238Z,8.90
2017-07-27T10:30:46.450Z,8.83
2017-07-27T10:33:14.657Z,8.47
2017-07-27T10:38:50.645Z,9.67
2017-07-27T10:41:18.876Z,9.70
2017-07-27T10:43:47.097Z,8.10
2017-07-27T10:52:16.605Z,8.60
2017-07-27T10:54:44.827Z,9.03
2017-07-27T10:57:13.044Z,7.87
2017-07-27T10:59:41.312Z,7.27
2017-07-27T11:02:09.545Z,10.07
2017-07-27T11:04:37.756Z,8.57
2017-07-27T11:07:06.013Z,9.00
2017-07-27T11:09:34.268Z,7.20
2017-07-27T11:12:02.484Z,8.20
2017-07-27T11:14:30.741Z,8.23
2017-07-27T11:16:58.969Z,7.53
2017-07-27T11:19:27.178Z,7.90
2017-07-27T11:21:55.460Z,8.07
2017-07-27T11:24:23.682Z,8.80
2017-07-27T11:26:51.908Z,7.10
2017-07-27T11:29:20.186Z,8.80
2017-07-27T11:31:49.126Z,8.53
2017-07-27T11:34:47.649Z,8.80
2017-07-27T11:37:15.897Z,9.30
2017-07-27T11:39:44.883Z,7.90
2017-07-27T11:42:13.153Z,8.80
2017-07-27T11:44:41.371Z,9.40
2017-07-27T11:47:09.607Z,8.67
2017-07-27T11:49:37.885Z,9.00
2017-07-27T11:52:06.873Z,8.70
2017-07-27T11:54:35.102Z,7.23
2017-07-27T11:57:03.358Z,8.07
2017-07-27T11:59:48.846Z,8.63
2017-07-27T12:05:17.281Z,6.73
2017-07-27T12:07:45.509Z,7.30
2017-07-27T12:10:13.743Z,7.30
2017-07-27T12:12:42.014Z,7.53
2017-07-27T12:15:10.229Z,7.27
2017-07-27T12:17:38.467Z,7.10
2017-07-27T12:20:06.729Z,8.07
2017-07-27T12:22:34.995Z,9.17
2017-07-27T12:25:03.222Z,7.83
2017-07-27T12:27:48.931Z,6.27
2017-07-27T12:30:17.161Z,6.30
2017-07-27T12:32:45.401Z,6.37
2017-07-27T12:35:13.672Z,6.80
2017-07-27T12:37:41.886Z,7.17
2017-07-27T12:40:10.120Z,6.93
2017-07-27T12:42:38.375Z,7.07
2017-07-27T12:45:06.587Z,6.60
2017-07-27T12:47:34.801Z,7.60
2017-07-27T12:53:04.061Z,7.73
2017-07-27T12:55:48.923Z,7.53
2017-07-27T12:58:17.217Z,8.27
2017-07-27T13:00:45.453Z,8.40
2017-07-27T13:03:13.680Z,7.83
2017-07-27T13:05:41.996Z,6.40
2017-07-27T13:08:10.243Z,6.73
2017-07-27T13:10:39.236Z,6.50
2017-07-27T13:13:07.490Z,6.30
2017-07-27T13:15:35.705Z,8.10
2017-07-27T13:18:04.702Z,7.77
2017-07-27T13:23:48.577Z,7.80
2017-07-27T13:29:17.760Z,7.80
2017-07-27T13:31:46.011Z,6.83
2017-07-27T13:34:14.244Z,7.63
2017-07-27T13:36:49.425Z,9.43
2017-07-27T13:41:37.707Z,8.53
2017-07-27T13:44:06.741Z,8.20
2017-07-27T13:46:48.339Z,7.93
2017-07-27T13:49:16.623Z,6.23
2017-07-27T13:51:51.382Z,5.40
2017-07-27T13:54:47.105Z,8.20
2017-07-27T13:57:15.343Z,5.60
2017-07-27T13:59:43.562Z,6.03
2017-07-27T14:02:12.595Z,5.67
2017-07-27T14:04:40.888Z,5.70
2017-07-27T14:07:09.132Z,6.20
2017-07-27T14:09:50.711Z,6.03
2017-07-27T14:12:18.942Z,5.80
2017-07-27T14:14:47.178Z,6.40
2017-07-27T14:17:15.456Z,5.83
2017-07-27T14:19:49.670Z,6.70
2017-07-27T14:22:17.983Z,6.23
2017-07-27T14:24:46.230Z,6.30
2017-07-27T14:27:14.462Z,6.17
2017-07-27T14:29:43.507Z,7.67
2017-07-27T14:32:11.732Z,6.50
2017-07-27T14:34:39.946Z,6.10
2017-07-27T14:37:08.205Z,6.57
2017-07-27T14:39:36.441Z,6.00
2017-07-27T14:42:04.672Z,5.53
2017-07-27T14:44:32.934Z,6.90
2017-07-27T14:47:01.159Z,5.77
2017-07-27T14:49:29.381Z,5.37
2017-07-27T14:51:57.655Z,5.40
2017-07-27T14:54:25.883Z,6.37
2017-07-27T14:56:54.111Z,6.00
2017-07-27T14:59:22.387Z,7.13
2017-07-27T15:01:50.615Z,6.80
2017-07-27T15:06:57.370Z,6.83
2017-07-27T15:09:25.595Z,6.10
2017-07-27T15:11:54.588Z,5.60
2017-07-27T15:14:23.617Z,5.93
2017-07-27T15:16:51.847Z,5.90
2017-07-27T15:19:20.840Z,6.23
2017-07-27T15:21:49.123Z,6.50
2017-07-27T15:24:18.116Z,6.13
2017-07-27T15:26:47.108Z,7.57
2017-07-27T15:29:16.133Z,6.13
2017-07-27T15:31:44.351Z,5.90
2017-07-27T15:34:12.564Z,6.70
2017-07-27T15:36:40.851Z,5.93
2017-07-27T15:42:09.714Z,5.93
2017-07-27T15:44:37.960Z,6.87
2017-07-27T15:47:06.208Z,7.23
2017-07-27T15:49:34.486Z,6.67
2017-07-27T15:52:02.756Z,6.53
2017-07-27T15:54:31.644Z,7.27
2017-07-27T15:56:59.914Z,6.40
2017-07-27T15:59:28.142Z,7.63
2017-07-27T16:04:56.691Z,9.13
2017-07-27T16:07:24.916Z,6.00
2017-07-27T16:09:53.150Z,6.30
2017-07-27T16:12:47.395Z,9.20
2017-07-27T16:15:15.620Z,7.77
2017-07-27T16:17:43.852Z,6.60
2017-07-27T16:20:12.928Z,7.50
2017-07-27T16:22:48.597Z,6.10
2017-07-27T16:25:47.366Z,6.00
2017-07-27T16:28:15.582Z,5.23
2017-07-27T16:30:44.574Z,7.10
2017-07-27T16:33:13.608Z,6.33
2017-07-27T16:35:41.836Z,5.30
2017-07-27T16:41:10.840Z,7.50
2017-07-27T16:43:39.866Z,6.60
2017-07-27T16:46:08.088Z,7.30
2017-07-27T16:48:36.399Z,7.87
2017-07-27T16:51:04.638Z,7.80
2017-07-27T16:53:32.869Z,6.10
2017-07-27T16:56:01.476Z,8.20
2017-07-27T17:01:29.981Z,6.80
2017-07-27T17:03:58.214Z,8.20
2017-07-27T17:09:27.880Z,6.47
2017-07-27T17:11:56.112Z,7.10
2017-07-27T17:14:24.339Z,7.67
2017-07-27T17:16:52.600Z,6.30
2017-07-27T17:19:20.827Z,6.67
2017-07-27T17:21:49.855Z,6.90
2017-07-27T17:24:47.606Z,7.87
2017-07-27T17:27:15.863Z,6.23
2017-07-27T17:29:44.116Z,5.93
2017-07-27T17:32:12.397Z,7.00
2017-07-27T17:37:18.801Z,6.30
2017-07-27T17:39:47.025Z,7.03
2017-07-27T17:42:15.363Z,7.00
2017-07-27T17:44:43.622Z,7.10
2017-07-27T17:47:11.876Z,6.03
2017-07-27T17:49:49.959Z,5.80
2017-07-27T17:52:48.661Z,7.90
2017-07-27T17:55:16.923Z,6.97
2017-07-27T17:57:51.364Z,6.70
2017-07-27T18:00:19.633Z,8.07
2017-07-27T18:05:21.875Z,7.63
2017-07-27T18:07:50.115Z,6.90
2017-07-27T18:10:19.116Z,7.20
2017-07-27T18:12:48.558Z,6.00
2017-07-27T18:15:16.819Z,7.40
2017-07-27T18:17:48.937Z,6.27
2017-07-27T18:23:18.914Z,6.57
2017-07-27T18:25:47.151Z,6.80
2017-07-27T18:28:15.435Z,7.70
2017-07-27T18:30:43.752Z,7.80
2017-07-27T18:33:12.053Z,6.60
2017-07-27T18:35:40.283Z,6.40
2017-07-27T18:38:08.787Z,6.17
2017-07-27T18:40:37.029Z,6.10
2017-07-27T18:43:06.071Z,8.43
2017-07-27T18:45:34.413Z,6.73
2017-07-27T18:48:02.647Z,8.87
2017-07-27T18:50:30.872Z,8.30
2017-07-27T18:52:59.176Z,8.33
2017-07-27T18:55:27.402Z,8.53
2017-07-27T18:57:56.397Z,9.10
2017-07-27T19:00:25.436Z,7.90
2017-07-27T19:02:53.695Z,7.07
2017-07-27T19:05:21.925Z,6.07
2017-07-27T19:07:50.951Z,6.70
2017-07-27T19:10:19.192Z,6.30
2017-07-27T19:12:48.195Z,6.30
2017-07-27T19:15:17.866Z,6.63
2017-07-27T19:17:49.392Z,6.87
2017-07-27T19:20:17.614Z,5.90
2017-07-27T19:22:45.871Z,8.77
2017-07-27T19:25:14.143Z,9.73
2017-07-27T19:27:42.376Z,6.70
2017-07-27T19:30:10.681Z,7.07
2017-07-27T19:32:38.914Z,7.70
2017-07-27T19:35:07.927Z,8.77
2017-07-27T19:37:36.433Z,9.50
2017-07-27T19:40:04.888Z,10.50
2017-07-27T19:42:48.429Z,11.60
2017-07-27T19:48:16.589Z,12.07
2017-07-27T19:50:44.836Z,11.03
2017-07-27T19:53:13.121Z,8.10
2017-07-27T19:55:49.372Z,10.13
2017-07-27T19:58:47.835Z,9.57
2017-07-27T20:01:16.108Z,9.43
2017-07-27T20:03:44.359Z,10.10
2017-07-27T20:06:12.594Z,6.70
2017-07-27T20:08:41.656Z,9.13
2017-07-27T20:11:09.882Z,10.03
2017-07-27T20:13:49.179Z,10.10
2017-07-27T20:16:17.428Z,8.30
2017-07-27T20:18:45.649Z,8.60
2017-07-27T20:21:13.926Z,7.40
2017-07-27T20:26:49.415Z,7.60
2017-07-27T20:29:48.325Z,7.43
2017-07-27T20:32:16.582Z,6.37
2017-07-27T20:34:44.829Z,6.50
2017-07-27T20:37:13.074Z,8.00
2017-07-27T20:39:41.345Z,7.77
2017-07-27T20:42:09.581Z,9.57
2017-07-27T20:44:38.106Z,7.83
2017-07-27T20:47:06.721Z,8.37
2017-07-27T20:49:35.731Z,10.93
2017-07-27T20:52:03.978Z,7.93
2017-07-27T20:54:32.255Z,7.90
2017-07-27T20:57:00.505Z,7.83
2017-07-27T20:59:28.739Z,9.20
2017-07-27T21:01:57.387Z,8.17
2017-07-27T21:04:49.289Z,8.43
2017-07-27T21:07:17.575Z,11.13
2017-07-27T21:09:49.418Z,6.90
2017-07-27T21:12:17.707Z,8.07
2017-07-27T21:14:46.580Z,8.17
2017-07-27T21:17:14.805Z,7.70
2017-07-27T21:19:50.174Z,10.50
2017-07-27T21:22:48.783Z,11.80
2017-07-27T21:25:17.071Z,13.47
2017-07-27T21:27:45.292Z,11.73
2017-07-27T21:30:14.308Z,14.37
2017-07-27T21:32:42.590Z,21.90
2017-07-27T21:35:10.832Z,21.17
2017-07-27T21:37:50.442Z,20.70
2017-07-27T21:40:18.672Z,20.67
2017-07-27T21:42:47.196Z,20.87
2017-07-27T21:45:15.778Z,19.40
2017-07-27T21:47:44.011Z,22.30
2017-07-27T21:50:12.237Z,14.47
2017-07-27T21:55:41.060Z,9.07
2017-07-27T21:58:09.305Z,9.50
2017-07-27T22:00:37.565Z,9.10
2017-07-27T22:03:05.854Z,15.80
2017-07-27T22:05:48.911Z,8.80
2017-07-27T22:08:17.979Z,8.20
2017-07-27T22:10:46.229Z,8.30
2017-07-27T22:13:15.206Z,9.97
2017-07-27T22:18:43.443Z,20.57
2017-07-27T22:21:11.719Z,10.13
2017-07-27T22:23:39.941Z,9.83
2017-07-27T22:26:08.199Z,9.97
2017-07-27T22:28:50.410Z,10.40
2017-07-27T22:31:49.397Z,8.80
2017-07-27T22:34:18.387Z,8.90
2017-07-27T22:36:46.626Z,8.20
2017-07-27T22:45:16.573Z,8.60
2017-07-27T22:47:45.615Z,8.40
2017-07-27T22:50:14.593Z,9.50
2017-07-27T22:52:42.884Z,8.80
2017-07-27T22:55:11.882Z,7.77
2017-07-27T22:57:40.892Z,7.30
2017-07-27T23:00:09.174Z,7.83
2017-07-27T23:02:50.151Z,8.83
2017-07-27T23:05:18.412Z,8.70
2017-07-27T23:07:46.638Z,8.17
2017-07-27T23:13:14.642Z,7.40
2017-07-27T23:15:42.875Z,8.80
2017-07-27T23:18:11.115Z,7.73
2017-07-27T23:20:40.148Z,7.73
2017-07-27T23:23:08.388Z,9.93
2017-07-27T23:25:50.034Z,8.20
2017-07-27T23:28:18.273Z,7.50
2017-07-27T23:30:49.918Z,7.70
2017-07-27T23:33:18.145Z,7.40
2017-07-27T23:35:46.384Z,7.07
2017-07-27T23:41:15.622Z,7.23
2017-07-27T23:43:43.847Z,7.13
2017-07-27T23:46:12.079Z,6.67
2017-07-27T23:48:40.356Z,9.20
2017-07-27T23:51:08.592Z,6.70
2017-07-27T23:53:49.432Z,7.60
2017-07-27T23:56:18.444Z,6.57
2017-07-27T23:58:50.552Z,6.90
